Airfield :
LOGIN :

Register | Disclaimer

   EN    FR    IT 

 










Legend :    VFR   Marginal VFR   IFR   Intensive IFR   Very Intensive IFR
Visi :
Ceiling :
>= 8 km
>= 3000ft
5 to 8 km
1000 to 3000 ft
1500m to 5 km
500 to 1000 ft
800 to 1500m
200 to 500 ft
< 800m
< 200 ft
Symbols :   Thunderstorms  Fog  Heavy snow  Heavy precipitations  Wind > 20 kt
SIGMETs :     Misc.  Thunderstorms  Icing  Turbulence  Mountain Waves  Volcanic Ashes






- Airport Elevation : 97 ft
- IATA code : EBJ


EKEB - Esbjerg

CURRENT METAR :
  • 180320Z AUTO 14006KT 110V170 9000 BKN010/// 11/10 Q1006

EXPIRED METARs :
  • 180250Z AUTO 13005KT 100V160 9999 BKN012/// 11/10 Q1006
  • 180220Z AUTO 12005KT 9999 BKN012/// BKN021/// 11/10 Q1006
  • 180150Z AUTO 12005KT 9999 BKN024/// 11/09 Q1007
  • 180120Z AUTO 12005KT 9999 SCT022/// SCT034/// BKN042/// BKN067/// 10/09 Q1007
  • 180050Z AUTO 10005KT 9999 BKN034/// 10/09 Q1007
  • 180020Z AUTO 10005KT 9999 BKN046/// 10/09 Q1007

TAF TAF EKEB
Valid from the 18 at 03:00 until the 18 at 12:00 UTC


180221Z 1803/1812 VRB03KT 9999 BKN015
TEMPO 1803/1809 0200 FG VV002
BECMG 1809/1811 16010KT 4000 SHRA BKN015CB
TEMPO 1811/1812 6000 NSW BKN010



MET'MAP, your aeronautical weather chart ! - Copyright ORBIFLY December 2007 - Disclaimer

ORBIFLY MET'MAP TEAM :

Programming & Development : Alexandra Zaïnal
Concept & Development : Baudouin d'Aumeries
Co-Development & Prog : Marc-Olivier Méhu
Technical & hardware support : Manuel Goepfert

Contact : metmap@orbifly.com




SOURCES & CREDITS :

   NOAA